Cuyahoga Falls, Ohio
Current Conditions -  °F | °C
As of 3:54 PM on Saturday 25 Oct 2014 (Local Time) from KAKR Reporting Station
Clear Clear  
Wind Chill: 72°   Ceiling: Unl
Heat Index: 72°   Visibility: 10mi
Dew Point: 52°   Wind: 20mph
Humidity: 49%   Direction: 270°W
Pressure: 29.76"   Gusts: 28mph
Location:  41.14°N, 81.48°W
Report Text: KAKR 251954Z AUTO 27017G24KT 10SM CLR 22/11 A2976 RMK AO2 SLP076 T02220111
Loading
Personal Weather Stations






























Interactive Weather Map
Tropical Storm Tracking
New forecast layout! Learn more

10-Day Weather Forecast

Advertisements
Track Severe Weather on mobile